Minneiska, Minnesota
Current Conditions -  °F | °C
As of 2:34 AM on Thursday 18 Dec 2014 (Local Time) from KONA Reporting Station
Overcast Overcast  
Wind Chill: 19°   Ceiling: 2100
Heat Index: 19°   Visibility: 10mi
Dew Point: 14°   Wind: 3mph
Humidity: 80%   Direction: 320°NW
Pressure: 30.34"   Gusts: NA
Location:  44.1503°N, 91.9879°W
Report Text: KONA 180834Z AUTO 32003KT 10SM OVC021 M07/M10 A3034 RMK AO2
Loading
Personal Weather Stations






























Interactive Weather Map New forecast layout! Learn more

10-Day Weather Forecast

Advertisements
Track Severe Weather on mobile